sensor_id;sensor_type;location;lat;lon;timestamp;temperature;humidity
31527;DHT22;18136;42.236;-73.040;2022-07-29T00:01:28;20.40;99.90
31527;DHT22;18136;42.236;-73.040;2022-07-29T00:03:54;20.20;99.90
31527;DHT22;18136;42.236;-73.040;2022-07-29T00:06:20;20.30;99.90
31527;DHT22;18136;42.236;-73.040;2022-07-29T00:08:46;20.20;99.90
31527;DHT22;18136;42.236;-73.040;2022-07-29T00:11:12;20.20;99.90
31527;DHT22;18136;42.236;-73.040;2022-07-29T00:13:38;20.20;99.90
31527;DHT22;18136;42.236;-73.040;2022-07-29T00:16:04;20.20;99.90
31527;DHT22;18136;42.236;-73.040;2022-07-29T00:18:32;20.10;99.90
31527;DHT22;18136;42.236;-73.040;2022-07-29T00:20:59;20.20;99.90
31527;DHT22;18136;42.236;-73.040;2022-07-29T00:23:26;20.20;99.90
31527;DHT22;18136;42.236;-73.040;2022-07-29T00:25:52;20.10;99.90
31527;DHT22;18136;42.236;-73.040;2022-07-29T00:28:18;20.10;99.90
31527;DHT22;18136;42.236;-73.040;2022-07-29T00:30:45;20.10;99.90
31527;DHT22;18136;42.236;-73.040;2022-07-29T00:33:11;20.00;99.90
31527;DHT22;18136;42.236;-73.040;2022-07-29T00:35:37;19.90;99.90
31527;DHT22;18136;42.236;-73.040;2022-07-29T00:38:13;20.00;99.90
31527;DHT22;18136;42.236;-73.040;2022-07-29T00:40:44;19.90;99.90
31527;DHT22;18136;42.236;-73.040;2022-07-29T00:43:13;20.00;99.90
31527;DHT22;18136;42.236;-73.040;2022-07-29T00:45:40;19.90;99.90
31527;DHT22;18136;42.236;-73.040;2022-07-29T00:48:06;19.90;99.90
31527;DHT22;18136;42.236;-73.040;2022-07-29T00:50:36;19.90;99.90
31527;DHT22;18136;42.236;-73.040;2022-07-29T00:53:03;20.10;99.90
31527;DHT22;18136;42.236;-73.040;2022-07-29T00:55:30;19.90;99.90
31527;DHT22;18136;42.236;-73.040;2022-07-29T00:57:57;19.90;99.90
31527;DHT22;18136;42.236;-73.040;2022-07-29T01:00:25;19.90;99.90
31527;DHT22;18136;42.236;-73.040;2022-07-29T01:02:51;20.00;99.90
31527;DHT22;18136;42.236;-73.040;2022-07-29T01:05:20;19.90;99.90
31527;DHT22;18136;42.236;-73.040;2022-07-29T01:07:48;19.80;99.90
31527;DHT22;18136;42.236;-73.040;2022-07-29T01:10:15;19.80;99.90
31527;DHT22;18136;42.236;-73.040;2022-07-29T01:12:44;20.00;99.90
31527;DHT22;18136;42.236;-73.040;2022-07-29T01:15:12;19.80;99.90
31527;DHT22;18136;42.236;-73.040;2022-07-29T01:17:45;19.70;99.90
31527;DHT22;18136;42.236;-73.040;2022-07-29T01:20:31;19.70;99.90
31527;DHT22;18136;42.236;-73.040;2022-07-29T01:23:32;19.90;99.90
31527;DHT22;18136;42.236;-73.040;2022-07-29T01:29:16;19.60;99.90
31527;DHT22;18136;42.236;-73.040;2022-07-29T01:32:12;19.70;99.90
31527;DHT22;18136;42.236;-73.040;2022-07-29T01:40:03;19.60;99.90
31527;DHT22;18136;42.236;-73.040;2022-07-29T01:42:43;19.70;99.90
31527;DHT22;18136;42.236;-73.040;2022-07-29T01:45:23;19.50;99.90
31527;DHT22;18136;42.236;-73.040;2022-07-29T01:48:06;19.70;99.90
31527;DHT22;18136;42.236;-73.040;2022-07-29T01:50:45;19.70;99.90
31527;DHT22;18136;42.236;-73.040;2022-07-29T01:53:14;19.80;99.90
31527;DHT22;18136;42.236;-73.040;2022-07-29T01:55:44;19.60;99.90
31527;DHT22;18136;42.236;-73.040;2022-07-29T01:58:12;19.60;99.90
31527;DHT22;18136;42.236;-73.040;2022-07-29T02:00:40;19.60;99.90
31527;DHT22;18136;42.236;-73.040;2022-07-29T02:03:09;19.50;99.90
31527;DHT22;18136;42.236;-73.040;2022-07-29T02:05:39;19.60;99.90
31527;DHT22;18136;42.236;-73.040;2022-07-29T02:08:06;19.50;99.90
31527;DHT22;18136;42.236;-73.040;2022-07-29T02:10:34;19.50;99.90
31527;DHT22;18136;42.236;-73.040;2022-07-29T02:13:02;19.50;99.90
31527;DHT22;18136;42.236;-73.040;2022-07-29T02:15:32;19.50;99.90
31527;DHT22;18136;42.236;-73.040;2022-07-29T02:18:02;19.50;99.90
31527;DHT22;18136;42.236;-73.040;2022-07-29T02:20:30;19.60;99.90
31527;DHT22;18136;42.236;-73.040;2022-07-29T02:22:59;19.60;99.90
31527;DHT22;18136;42.236;-73.040;2022-07-29T02:25:28;19.50;99.90
31527;DHT22;18136;42.236;-73.040;2022-07-29T02:27:55;19.50;99.90
31527;DHT22;18136;42.236;-73.040;2022-07-29T02:30:23;19.50;99.90
31527;DHT22;18136;42.236;-73.040;2022-07-29T02:32:51;19.50;99.90
31527;DHT22;18136;42.236;-73.040;2022-07-29T02:35:18;19.60;99.90
31527;DHT22;18136;42.236;-73.040;2022-07-29T02:37:46;19.50;99.90
31527;DHT22;18136;42.236;-73.040;2022-07-29T02:40:38;19.60;99.90
31527;DHT22;18136;42.236;-73.040;2022-07-29T02:43:06;19.50;99.90
31527;DHT22;18136;42.236;-73.040;2022-07-29T02:45:33;19.50;99.90
31527;DHT22;18136;42.236;-73.040;2022-07-29T02:48:06;19.60;99.90
31527;DHT22;18136;42.236;-73.040;2022-07-29T02:50:37;19.50;99.90
31527;DHT22;18136;42.236;-73.040;2022-07-29T02:53:18;19.50;99.90
31527;DHT22;18136;42.236;-73.040;2022-07-29T02:55:51;19.40;99.90
31527;DHT22;18136;42.236;-73.040;2022-07-29T03:01:29;19.40;99.90
31527;DHT22;18136;42.236;-73.040;2022-07-29T03:03:56;19.40;99.90
31527;DHT22;18136;42.236;-73.040;2022-07-29T03:06:25;19.40;99.90
31527;DHT22;18136;42.236;-73.040;2022-07-29T03:08:53;19.50;99.90
31527;DHT22;18136;42.236;-73.040;2022-07-29T03:11:20;19.40;99.90
31527;DHT22;18136;42.236;-73.040;2022-07-29T03:13:46;19.40;99.90
31527;DHT22;18136;42.236;-73.040;2022-07-29T03:16:13;19.40;99.90
31527;DHT22;18136;42.236;-73.040;2022-07-29T03:18:40;19.40;99.90
31527;DHT22;18136;42.236;-73.040;2022-07-29T03:21:08;19.30;99.90
31527;DHT22;18136;42.236;-73.040;2022-07-29T03:23:34;19.40;99.90
31527;DHT22;18136;42.236;-73.040;2022-07-29T03:26:01;19.30;99.90
31527;DHT22;18136;42.236;-73.040;2022-07-29T03:28:27;19.30;99.90
31527;DHT22;18136;42.236;-73.040;2022-07-29T03:30:53;19.30;99.90
31527;DHT22;18136;42.236;-73.040;2022-07-29T03:33:20;19.30;99.90
31527;DHT22;18136;42.236;-73.040;2022-07-29T03:35:46;19.30;99.90
31527;DHT22;18136;42.236;-73.040;2022-07-29T03:38:12;19.30;99.90
31527;DHT22;18136;42.236;-73.040;2022-07-29T03:40:43;19.30;99.90
31527;DHT22;18136;42.236;-73.040;2022-07-29T03:43:11;19.30;99.90
31527;DHT22;18136;42.236;-73.040;2022-07-29T03:45:39;19.30;99.90
31527;DHT22;18136;42.236;-73.040;2022-07-29T03:48:11;19.30;99.90
31527;DHT22;18136;42.236;-73.040;2022-07-29T03:50:38;19.30;99.90
31527;DHT22;18136;42.236;-73.040;2022-07-29T03:53:05;19.30;99.90
31527;DHT22;18136;42.236;-73.040;2022-07-29T03:55:36;19.20;99.90
31527;DHT22;18136;42.236;-73.040;2022-07-29T03:58:03;19.20;99.90
31527;DHT22;18136;42.236;-73.040;2022-07-29T04:00:30;19.20;99.90
31527;DHT22;18136;42.236;-73.040;2022-07-29T04:02:57;19.20;99.90
31527;DHT22;18136;42.236;-73.040;2022-07-29T04:05:23;19.20;99.90
31527;DHT22;18136;42.236;-73.040;2022-07-29T04:07:49;19.20;99.90
31527;DHT22;18136;42.236;-73.040;2022-07-29T04:10:16;19.00;99.90
31527;DHT22;18136;42.236;-73.040;2022-07-29T04:12:42;19.20;99.90
31527;DHT22;18136;42.236;-73.040;2022-07-29T04:15:09;19.00;99.90
31527;DHT22;18136;42.236;-73.040;2022-07-29T04:17:35;19.00;99.90
31527;DHT22;18136;42.236;-73.040;2022-07-29T04:20:01;19.10;99.90
31527;DHT22;18136;42.236;-73.040;2022-07-29T04:22:28;19.00;99.90
31527;DHT22;18136;42.236;-73.040;2022-07-29T04:24:54;19.00;99.90
31527;DHT22;18136;42.236;-73.040;2022-07-29T04:27:20;19.00;99.90
31527;DHT22;18136;42.236;-73.040;2022-07-29T04:29:46;18.90;99.90
31527;DHT22;18136;42.236;-73.040;2022-07-29T04:32:12;18.80;99.90
31527;DHT22;18136;42.236;-73.040;2022-07-29T04:34:38;18.90;99.90
31527;DHT22;18136;42.236;-73.040;2022-07-29T04:37:04;18.90;99.90
31527;DHT22;18136;42.236;-73.040;2022-07-29T04:39:30;18.80;99.90
31527;DHT22;18136;42.236;-73.040;2022-07-29T04:41:56;18.70;99.90
31527;DHT22;18136;42.236;-73.040;2022-07-29T04:44:23;18.70;99.90
31527;DHT22;18136;42.236;-73.040;2022-07-29T04:46:49;18.90;99.90
31527;DHT22;18136;42.236;-73.040;2022-07-29T04:49:15;18.70;99.90
31527;DHT22;18136;42.236;-73.040;2022-07-29T04:51:41;18.70;99.90
31527;DHT22;18136;42.236;-73.040;2022-07-29T04:54:07;18.80;99.90
31527;DHT22;18136;42.236;-73.040;2022-07-29T04:56:33;18.60;99.90
31527;DHT22;18136;42.236;-73.040;2022-07-29T04:58:59;18.70;99.90
31527;DHT22;18136;42.236;-73.040;2022-07-29T05:01:25;18.70;99.90
31527;DHT22;18136;42.236;-73.040;2022-07-29T05:03:51;18.60;99.90
31527;DHT22;18136;42.236;-73.040;2022-07-29T05:06:17;18.60;99.90
31527;DHT22;18136;42.236;-73.040;2022-07-29T05:08:43;18.50;99.90
31527;DHT22;18136;42.236;-73.040;2022-07-29T05:11:09;18.50;99.90
31527;DHT22;18136;42.236;-73.040;2022-07-29T05:13:42;18.60;99.90
31527;DHT22;18136;42.236;-73.040;2022-07-29T05:16:09;18.40;99.90
31527;DHT22;18136;42.236;-73.040;2022-07-29T05:18:35;18.50;99.90
31527;DHT22;18136;42.236;-73.040;2022-07-29T05:21:01;18.40;99.90
31527;DHT22;18136;42.236;-73.040;2022-07-29T05:23:27;18.40;99.90
31527;DHT22;18136;42.236;-73.040;2022-07-29T05:25:53;18.40;99.90
31527;DHT22;18136;42.236;-73.040;2022-07-29T05:28:19;18.30;99.90
31527;DHT22;18136;42.236;-73.040;2022-07-29T05:30:45;18.30;99.90
31527;DHT22;18136;42.236;-73.040;2022-07-29T05:33:11;18.30;99.90
31527;DHT22;18136;42.236;-73.040;2022-07-29T05:35:37;18.20;99.90
31527;DHT22;18136;42.236;-73.040;2022-07-29T05:38:04;18.30;99.90
31527;DHT22;18136;42.236;-73.040;2022-07-29T05:40:30;18.30;99.90
31527;DHT22;18136;42.236;-73.040;2022-07-29T05:42:56;18.10;99.90
31527;DHT22;18136;42.236;-73.040;2022-07-29T05:45:22;18.20;99.90
31527;DHT22;18136;42.236;-73.040;2022-07-29T05:47:50;18.10;99.90
31527;DHT22;18136;42.236;-73.040;2022-07-29T05:50:16;18.20;99.90
31527;DHT22;18136;42.236;-73.040;2022-07-29T05:52:42;18.10;99.90
31527;DHT22;18136;42.236;-73.040;2022-07-29T05:55:08;18.10;99.90
31527;DHT22;18136;42.236;-73.040;2022-07-29T05:57:34;18.00;99.90
31527;DHT22;18136;42.236;-73.040;2022-07-29T06:00:00;18.10;99.90
31527;DHT22;18136;42.236;-73.040;2022-07-29T06:02:26;18.00;99.90
31527;DHT22;18136;42.236;-73.040;2022-07-29T06:04:53;18.00;99.90
31527;DHT22;18136;42.236;-73.040;2022-07-29T06:07:19;18.00;99.90
31527;DHT22;18136;42.236;-73.040;2022-07-29T06:09:45;17.90;99.90
31527;DHT22;18136;42.236;-73.040;2022-07-29T06:12:11;17.90;99.90
31527;DHT22;18136;42.236;-73.040;2022-07-29T06:14:37;17.90;99.90
31527;DHT22;18136;42.236;-73.040;2022-07-29T06:17:04;17.90;99.90
31527;DHT22;18136;42.236;-73.040;2022-07-29T06:19:31;17.90;99.90
31527;DHT22;18136;42.236;-73.040;2022-07-29T06:21:59;17.90;99.90
31527;DHT22;18136;42.236;-73.040;2022-07-29T06:24:25;17.90;99.90
31527;DHT22;18136;42.236;-73.040;2022-07-29T06:26:51;17.80;99.90
31527;DHT22;18136;42.236;-73.040;2022-07-29T06:29:17;17.90;99.90
31527;DHT22;18136;42.236;-73.040;2022-07-29T06:31:43;17.80;99.90
31527;DHT22;18136;42.236;-73.040;2022-07-29T06:34:09;17.80;99.90
31527;DHT22;18136;42.236;-73.040;2022-07-29T06:36:37;17.90;99.90
31527;DHT22;18136;42.236;-73.040;2022-07-29T06:39:07;17.80;99.90
31527;DHT22;18136;42.236;-73.040;2022-07-29T06:41:34;17.80;99.90
31527;DHT22;18136;42.236;-73.040;2022-07-29T06:44:00;17.90;99.90
31527;DHT22;18136;42.236;-73.040;2022-07-29T06:46:26;17.90;99.90
31527;DHT22;18136;42.236;-73.040;2022-07-29T06:48:53;17.80;99.90
31527;DHT22;18136;42.236;-73.040;2022-07-29T06:51:20;17.80;99.90
31527;DHT22;18136;42.236;-73.040;2022-07-29T06:53:46;17.90;99.90
31527;DHT22;18136;42.236;-73.040;2022-07-29T06:56:12;17.80;99.90
31527;DHT22;18136;42.236;-73.040;2022-07-29T06:58:40;17.80;99.90
31527;DHT22;18136;42.236;-73.040;2022-07-29T07:01:06;17.80;99.90
31527;DHT22;18136;42.236;-73.040;2022-07-29T07:03:33;17.80;99.90
31527;DHT22;18136;42.236;-73.040;2022-07-29T07:05:59;17.70;99.90
31527;DHT22;18136;42.236;-73.040;2022-07-29T07:08:25;17.80;99.90
31527;DHT22;18136;42.236;-73.040;2022-07-29T07:10:52;17.80;99.90
31527;DHT22;18136;42.236;-73.040;2022-07-29T07:13:18;17.80;99.90
31527;DHT22;18136;42.236;-73.040;2022-07-29T07:15:45;17.70;99.90
31527;DHT22;18136;42.236;-73.040;2022-07-29T07:18:13;17.70;99.90
31527;DHT22;18136;42.236;-73.040;2022-07-29T07:20:40;17.70;99.90
31527;DHT22;18136;42.236;-73.040;2022-07-29T07:23:06;17.70;99.90
31527;DHT22;18136;42.236;-73.040;2022-07-29T07:25:32;17.70;99.90
31527;DHT22;18136;42.236;-73.040;2022-07-29T07:27:58;17.60;99.90
31527;DHT22;18136;42.236;-73.040;2022-07-29T07:30:25;17.70;99.90
31527;DHT22;18136;42.236;-73.040;2022-07-29T07:32:51;17.70;99.90
31527;DHT22;18136;42.236;-73.040;2022-07-29T07:35:17;17.60;99.90
31527;DHT22;18136;42.236;-73.040;2022-07-29T07:37:43;17.60;99.90
31527;DHT22;18136;42.236;-73.040;2022-07-29T07:40:10;17.60;99.90
31527;DHT22;18136;42.236;-73.040;2022-07-29T07:42:40;17.60;99.90
31527;DHT22;18136;42.236;-73.040;2022-07-29T07:45:07;17.60;99.90
31527;DHT22;18136;42.236;-73.040;2022-07-29T07:47:35;17.60;99.90
31527;DHT22;18136;42.236;-73.040;2022-07-29T07:50:05;17.60;99.90
31527;DHT22;18136;42.236;-73.040;2022-07-29T07:52:32;17.60;99.90
31527;DHT22;18136;42.236;-73.040;2022-07-29T07:54:58;17.60;99.90
31527;DHT22;18136;42.236;-73.040;2022-07-29T07:57:24;17.60;99.90
31527;DHT22;18136;42.236;-73.040;2022-07-29T07:59:51;17.60;99.90
31527;DHT22;18136;42.236;-73.040;2022-07-29T08:02:17;17.60;99.90
31527;DHT22;18136;42.236;-73.040;2022-07-29T08:04:43;17.60;99.90
31527;DHT22;18136;42.236;-73.040;2022-07-29T08:07:09;17.70;99.90
31527;DHT22;18136;42.236;-73.040;2022-07-29T08:09:36;17.70;99.90
31527;DHT22;18136;42.236;-73.040;2022-07-29T08:12:02;17.60;99.90
31527;DHT22;18136;42.236;-73.040;2022-07-29T08:14:30;17.60;99.90
31527;DHT22;18136;42.236;-73.040;2022-07-29T08:16:57;17.70;99.90
31527;DHT22;18136;42.236;-73.040;2022-07-29T08:19:23;17.70;99.90
31527;DHT22;18136;42.236;-73.040;2022-07-29T08:21:49;17.70;99.90
31527;DHT22;18136;42.236;-73.040;2022-07-29T08:24:15;17.70;99.90
31527;DHT22;18136;42.236;-73.040;2022-07-29T08:27:00;17.70;99.90
31527;DHT22;18136;42.236;-73.040;2022-07-29T08:29:26;17.70;99.90
31527;DHT22;18136;42.236;-73.040;2022-07-29T08:31:52;17.70;99.90
31527;DHT22;18136;42.236;-73.040;2022-07-29T08:34:18;17.60;99.90
31527;DHT22;18136;42.236;-73.040;2022-07-29T08:36:44;17.70;99.90
31527;DHT22;18136;42.236;-73.040;2022-07-29T08:39:10;17.60;99.90
31527;DHT22;18136;42.236;-73.040;2022-07-29T08:41:36;17.60;99.90
31527;DHT22;18136;42.236;-73.040;2022-07-29T08:44:03;17.60;99.90
31527;DHT22;18136;42.236;-73.040;2022-07-29T08:46:29;17.60;99.90
31527;DHT22;18136;42.236;-73.040;2022-07-29T08:48:55;17.60;99.90
31527;DHT22;18136;42.236;-73.040;2022-07-29T08:51:22;17.70;99.90
31527;DHT22;18136;42.236;-73.040;2022-07-29T08:53:55;17.60;99.90
31527;DHT22;18136;42.236;-73.040;2022-07-29T08:56:21;17.60;99.90
31527;DHT22;18136;42.236;-73.040;2022-07-29T08:58:48;17.60;99.90
31527;DHT22;18136;42.236;-73.040;2022-07-29T09:01:17;17.60;99.90
31527;DHT22;18136;42.236;-73.040;2022-07-29T09:03:46;17.50;99.90
31527;DHT22;18136;42.236;-73.040;2022-07-29T09:06:14;17.60;99.90
31527;DHT22;18136;42.236;-73.040;2022-07-29T09:08:40;17.60;99.90
31527;DHT22;18136;42.236;-73.040;2022-07-29T09:11:07;17.50;99.90
31527;DHT22;18136;42.236;-73.040;2022-07-29T09:13:34;17.60;99.90
31527;DHT22;18136;42.236;-73.040;2022-07-29T09:16:00;17.50;99.90
31527;DHT22;18136;42.236;-73.040;2022-07-29T09:18:34;17.50;99.90
31527;DHT22;18136;42.236;-73.040;2022-07-29T09:21:02;17.50;99.90
31527;DHT22;18136;42.236;-73.040;2022-07-29T09:24:09;17.50;99.90
31527;DHT22;18136;42.236;-73.040;2022-07-29T09:26:40;17.50;99.90
31527;DHT22;18136;42.236;-73.040;2022-07-29T09:29:15;17.50;99.90
31527;DHT22;18136;42.236;-73.040;2022-07-29T09:31:47;17.40;99.90
31527;DHT22;18136;42.236;-73.040;2022-07-29T09:34:21;17.50;99.90
31527;DHT22;18136;42.236;-73.040;2022-07-29T09:36:50;17.50;99.90
31527;DHT22;18136;42.236;-73.040;2022-07-29T09:39:36;17.40;99.90
31527;DHT22;18136;42.236;-73.040;2022-07-29T09:42:06;17.40;99.90
31527;DHT22;18136;42.236;-73.040;2022-07-29T09:44:49;17.40;99.90
31527;DHT22;18136;42.236;-73.040;2022-07-29T09:47:17;17.40;99.90
31527;DHT22;18136;42.236;-73.040;2022-07-29T09:49:57;17.40;99.90
31527;DHT22;18136;42.236;-73.040;2022-07-29T09:52:27;17.40;99.90
31527;DHT22;18136;42.236;-73.040;2022-07-29T09:54:53;17.40;99.90
31527;DHT22;18136;42.236;-73.040;2022-07-29T09:57:24;17.40;99.90
31527;DHT22;18136;42.236;-73.040;2022-07-29T10:00:11;17.30;99.90
31527;DHT22;18136;42.236;-73.040;2022-07-29T10:02:39;17.30;99.90
31527;DHT22;18136;42.236;-73.040;2022-07-29T10:05:17;17.30;99.90
31527;DHT22;18136;42.236;-73.040;2022-07-29T10:07:57;17.30;99.90
31527;DHT22;18136;42.236;-73.040;2022-07-29T10:10:25;17.30;99.90
31527;DHT22;18136;42.236;-73.040;2022-07-29T10:12:56;17.30;99.90
31527;DHT22;18136;42.236;-73.040;2022-07-29T10:15:32;17.30;99.90
31527;DHT22;18136;42.236;-73.040;2022-07-29T10:17:59;17.30;99.90
31527;DHT22;18136;42.236;-73.040;2022-07-29T10:20:26;17.30;99.90
31527;DHT22;18136;42.236;-73.040;2022-07-29T10:22:54;17.30;99.90
31527;DHT22;18136;42.236;-73.040;2022-07-29T10:25:21;17.30;99.90
31527;DHT22;18136;42.236;-73.040;2022-07-29T10:27:49;17.30;99.90
31527;DHT22;18136;42.236;-73.040;2022-07-29T10:30:17;17.30;99.90
31527;DHT22;18136;42.236;-73.040;2022-07-29T10:33:08;17.30;99.90
31527;DHT22;18136;42.236;-73.040;2022-07-29T10:36:07;17.30;99.90
31527;DHT22;18136;42.236;-73.040;2022-07-29T10:44:18;17.50;99.90
31527;DHT22;18136;42.236;-73.040;2022-07-29T10:46:46;17.40;99.90
31527;DHT22;18136;42.236;-73.040;2022-07-29T10:49:18;17.40;99.90
31527;DHT22;18136;42.236;-73.040;2022-07-29T10:52:03;17.40;99.90
31527;DHT22;18136;42.236;-73.040;2022-07-29T11:05:15;17.60;99.90
31527;DHT22;18136;42.236;-73.040;2022-07-29T11:10:37;17.60;99.90
31527;DHT22;18136;42.236;-73.040;2022-07-29T11:13:03;17.60;99.90
31527;DHT22;18136;42.236;-73.040;2022-07-29T11:15:56;17.60;99.90
31527;DHT22;18136;42.236;-73.040;2022-07-29T11:18:23;17.70;99.90
31527;DHT22;18136;42.236;-73.040;2022-07-29T11:20:51;17.70;99.90
31527;DHT22;18136;42.236;-73.040;2022-07-29T11:29:03;17.80;99.90
31527;DHT22;18136;42.236;-73.040;2022-07-29T11:31:42;17.80;99.90
31527;DHT22;18136;42.236;-73.040;2022-07-29T11:34:23;17.80;99.90
31527;DHT22;18136;42.236;-73.040;2022-07-29T11:39:38;17.80;99.90
31527;DHT22;18136;42.236;-73.040;2022-07-29T11:47:25;17.90;99.90
31527;DHT22;18136;42.236;-73.040;2022-07-29T11:49:54;17.90;99.90
31527;DHT22;18136;42.236;-73.040;2022-07-29T11:52:20;18.00;99.90
31527;DHT22;18136;42.236;-73.040;2022-07-29T11:54:50;18.00;99.90
31527;DHT22;18136;42.236;-73.040;2022-07-29T11:57:18;18.00;99.90
31527;DHT22;18136;42.236;-73.040;2022-07-29T11:59:46;18.00;99.90
31527;DHT22;18136;42.236;-73.040;2022-07-29T12:02:14;18.00;99.90
31527;DHT22;18136;42.236;-73.040;2022-07-29T12:04:55;18.10;99.90
31527;DHT22;18136;42.236;-73.040;2022-07-29T12:07:47;18.00;99.90
31527;DHT22;18136;42.236;-73.040;2022-07-29T12:10:14;18.10;99.90
31527;DHT22;18136;42.236;-73.040;2022-07-29T12:12:41;18.10;99.90
31527;DHT22;18136;42.236;-73.040;2022-07-29T12:15:17;18.20;99.90
31527;DHT22;18136;42.236;-73.040;2022-07-29T12:17:46;18.20;99.90
31527;DHT22;18136;42.236;-73.040;2022-07-29T12:20:12;18.20;99.90
31527;DHT22;18136;42.236;-73.040;2022-07-29T12:22:42;18.20;99.90
31527;DHT22;18136;42.236;-73.040;2022-07-29T12:25:14;18.20;99.90
31527;DHT22;18136;42.236;-73.040;2022-07-29T12:27:42;18.20;99.90
31527;DHT22;18136;42.236;-73.040;2022-07-29T12:30:15;18.30;99.90
31527;DHT22;18136;42.236;-73.040;2022-07-29T12:32:44;18.30;99.90
31527;DHT22;18136;42.236;-73.040;2022-07-29T12:35:13;18.30;99.90
31527;DHT22;18136;42.236;-73.040;2022-07-29T12:37:40;18.30;99.90
31527;DHT22;18136;42.236;-73.040;2022-07-29T12:40:09;18.30;99.90
31527;DHT22;18136;42.236;-73.040;2022-07-29T12:42:35;18.30;99.90
31527;DHT22;18136;42.236;-73.040;2022-07-29T12:45:04;18.30;99.90
31527;DHT22;18136;42.236;-73.040;2022-07-29T12:47:30;18.40;99.90
31527;DHT22;18136;42.236;-73.040;2022-07-29T12:50:14;18.40;99.90
31527;DHT22;18136;42.236;-73.040;2022-07-29T12:52:44;18.40;99.90
31527;DHT22;18136;42.236;-73.040;2022-07-29T12:55:11;18.40;99.90
31527;DHT22;18136;42.236;-73.040;2022-07-29T12:57:50;18.50;99.90
31527;DHT22;18136;42.236;-73.040;2022-07-29T13:00:24;18.70;99.90
31527;DHT22;18136;42.236;-73.040;2022-07-29T13:02:58;18.70;99.90
31527;DHT22;18136;42.236;-73.040;2022-07-29T13:05:47;18.70;99.90
31527;DHT22;18136;42.236;-73.040;2022-07-29T13:08:17;18.80;99.90
31527;DHT22;18136;42.236;-73.040;2022-07-29T13:10:46;18.90;99.90
31527;DHT22;18136;42.236;-73.040;2022-07-29T13:13:14;18.90;99.90
31527;DHT22;18136;42.236;-73.040;2022-07-29T13:15:44;19.00;99.90
31527;DHT22;18136;42.236;-73.040;2022-07-29T13:18:34;19.20;99.90
31527;DHT22;18136;42.236;-73.040;2022-07-29T13:21:14;19.30;99.90
31527;DHT22;18136;42.236;-73.040;2022-07-29T13:23:41;19.50;99.90
31527;DHT22;18136;42.236;-73.040;2022-07-29T13:26:11;19.60;99.90
31527;DHT22;18136;42.236;-73.040;2022-07-29T13:28:37;19.80;99.90
31527;DHT22;18136;42.236;-73.040;2022-07-29T13:31:03;20.00;99.90
31527;DHT22;18136;42.236;-73.040;2022-07-29T13:33:30;20.10;99.90
31527;DHT22;18136;42.236;-73.040;2022-07-29T13:35:56;20.10;99.90
31527;DHT22;18136;42.236;-73.040;2022-07-29T13:38:22;20.10;99.90
31527;DHT22;18136;42.236;-73.040;2022-07-29T13:40:49;20.10;99.90
31527;DHT22;18136;42.236;-73.040;2022-07-29T13:43:15;20.10;99.90
31527;DHT22;18136;42.236;-73.040;2022-07-29T13:45:41;20.00;99.90
31527;DHT22;18136;42.236;-73.040;2022-07-29T13:48:07;20.00;99.90
31527;DHT22;18136;42.236;-73.040;2022-07-29T13:50:33;20.00;99.90
31527;DHT22;18136;42.236;-73.040;2022-07-29T13:52:59;20.00;99.90
31527;DHT22;18136;42.236;-73.040;2022-07-29T13:55:25;20.10;99.90
31527;DHT22;18136;42.236;-73.040;2022-07-29T13:57:51;20.10;99.90
31527;DHT22;18136;42.236;-73.040;2022-07-29T14:00:17;20.30;99.90
31527;DHT22;18136;42.236;-73.040;2022-07-29T14:02:45;20.40;99.90
31527;DHT22;18136;42.236;-73.040;2022-07-29T14:05:11;20.50;99.90
31527;DHT22;18136;42.236;-73.040;2022-07-29T14:07:38;20.60;99.90
31527;DHT22;18136;42.236;-73.040;2022-07-29T14:10:07;20.80;99.90
31527;DHT22;18136;42.236;-73.040;2022-07-29T14:12:33;20.80;99.90
31527;DHT22;18136;42.236;-73.040;2022-07-29T14:14:59;20.80;99.90
31527;DHT22;18136;42.236;-73.040;2022-07-29T14:17:26;20.90;99.90
31527;DHT22;18136;42.236;-73.040;2022-07-29T14:19:52;21.00;99.90
31527;DHT22;18136;42.236;-73.040;2022-07-29T14:22:18;21.30;99.90
31527;DHT22;18136;42.236;-73.040;2022-07-29T14:24:45;21.40;99.90
31527;DHT22;18136;42.236;-73.040;2022-07-29T14:27:11;21.50;99.90
31527;DHT22;18136;42.236;-73.040;2022-07-29T14:29:37;21.60;99.90
31527;DHT22;18136;42.236;-73.040;2022-07-29T14:32:04;21.80;99.90
31527;DHT22;18136;42.236;-73.040;2022-07-29T14:34:30;21.90;99.90
31527;DHT22;18136;42.236;-73.040;2022-07-29T14:36:56;22.00;99.90
31527;DHT22;18136;42.236;-73.040;2022-07-29T14:39:22;22.00;99.90
31527;DHT22;18136;42.236;-73.040;2022-07-29T14:41:49;22.00;99.90
31527;DHT22;18136;42.236;-73.040;2022-07-29T14:44:17;22.10;99.90
31527;DHT22;18136;42.236;-73.040;2022-07-29T14:46:44;22.20;99.90
31527;DHT22;18136;42.236;-73.040;2022-07-29T14:49:10;22.40;99.90
31527;DHT22;18136;42.236;-73.040;2022-07-29T14:51:36;22.60;99.90
31527;DHT22;18136;42.236;-73.040;2022-07-29T14:54:02;22.70;99.90
31527;DHT22;18136;42.236;-73.040;2022-07-29T14:56:28;22.60;99.90
31527;DHT22;18136;42.236;-73.040;2022-07-29T14:58:56;22.60;99.90
31527;DHT22;18136;42.236;-73.040;2022-07-29T15:01:23;22.60;99.90
31527;DHT22;18136;42.236;-73.040;2022-07-29T15:03:50;22.40;99.90
31527;DHT22;18136;42.236;-73.040;2022-07-29T15:06:16;22.40;99.90
31527;DHT22;18136;42.236;-73.040;2022-07-29T15:08:42;22.50;99.90
31527;DHT22;18136;42.236;-73.040;2022-07-29T15:11:08;22.40;99.90
31527;DHT22;18136;42.236;-73.040;2022-07-29T15:13:34;22.30;99.90
31527;DHT22;18136;42.236;-73.040;2022-07-29T15:16:00;22.50;99.90
31527;DHT22;18136;42.236;-73.040;2022-07-29T15:18:26;22.60;99.90
31527;DHT22;18136;42.236;-73.040;2022-07-29T15:20:53;22.50;99.90
31527;DHT22;18136;42.236;-73.040;2022-07-29T15:23:19;22.50;99.90
31527;DHT22;18136;42.236;-73.040;2022-07-29T15:25:45;22.70;99.90
31527;DHT22;18136;42.236;-73.040;2022-07-29T15:28:11;22.80;99.90
31527;DHT22;18136;42.236;-73.040;2022-07-29T15:30:37;23.00;99.90
31527;DHT22;18136;42.236;-73.040;2022-07-29T15:33:07;23.10;99.90
31527;DHT22;18136;42.236;-73.040;2022-07-29T20:52:31;23.40;99.90
31527;DHT22;18136;42.236;-73.040;2022-07-29T20:54:57;23.40;99.90
31527;DHT22;18136;42.236;-73.040;2022-07-29T20:57:23;23.30;99.90
31527;DHT22;18136;42.236;-73.040;2022-07-29T20:59:49;23.30;99.90
31527;DHT22;18136;42.236;-73.040;2022-07-29T21:02:15;23.30;99.90
31527;DHT22;18136;42.236;-73.040;2022-07-29T21:04:41;23.30;99.90
31527;DHT22;18136;42.236;-73.040;2022-07-29T21:07:08;23.30;99.90
31527;DHT22;18136;42.236;-73.040;2022-07-29T21:09:34;23.40;99.90
31527;DHT22;18136;42.236;-73.040;2022-07-29T21:12:00;23.50;99.90
31527;DHT22;18136;42.236;-73.040;2022-07-29T21:14:27;23.50;99.90